sensor_id;sensor_type;location;lat;lon;timestamp;P1;durP1;ratioP1;P2;durP2;ratioP2
67442;SDS011;54311;51.726;5.154;2023-09-12T00:00:49;21.73;;;19.48;;
67442;SDS011;54311;51.726;5.154;2023-09-12T00:03:17;24.73;;;22.17;;
67442;SDS011;54311;51.726;5.154;2023-09-12T00:05:50;27.27;;;24.33;;
67442;SDS011;54311;51.726;5.154;2023-09-12T00:10:43;27.60;;;21.83;;
67442;SDS011;54311;51.726;5.154;2023-09-12T00:13:08;26.65;;;23.05;;
67442;SDS011;54311;51.726;5.154;2023-09-12T00:15:34;26.48;;;23.65;;
67442;SDS011;54311;51.726;5.154;2023-09-12T00:17:59;25.92;;;22.45;;
67442;SDS011;54311;51.726;5.154;2023-09-12T00:20:24;26.63;;;23.25;;
67442;SDS011;54311;51.726;5.154;2023-09-12T00:22:50;26.92;;;23.15;;
67442;SDS011;54311;51.726;5.154;2023-09-12T00:25:15;28.60;;;24.08;;
67442;SDS011;54311;51.726;5.154;2023-09-12T00:27:40;30.25;;;23.52;;
67442;SDS011;54311;51.726;5.154;2023-09-12T00:30:06;27.60;;;22.02;;
67442;SDS011;54311;51.726;5.154;2023-09-12T00:32:31;27.17;;;22.88;;
67442;SDS011;54311;51.726;5.154;2023-09-12T00:34:57;32.88;;;25.65;;
67442;SDS011;54311;51.726;5.154;2023-09-12T00:37:22;27.10;;;24.30;;
67442;SDS011;54311;51.726;5.154;2023-09-12T00:39:47;27.73;;;24.55;;
67442;SDS011;54311;51.726;5.154;2023-09-12T00:42:13;31.27;;;24.70;;
67442;SDS011;54311;51.726;5.154;2023-09-12T00:44:38;29.48;;;25.05;;
67442;SDS011;54311;51.726;5.154;2023-09-12T00:47:03;25.90;;;23.10;;
67442;SDS011;54311;51.726;5.154;2023-09-12T00:49:29;26.52;;;23.83;;
67442;SDS011;54311;51.726;5.154;2023-09-12T00:51:55;28.52;;;23.00;;
67442;SDS011;54311;51.726;5.154;2023-09-12T00:54:21;23.90;;;21.38;;
67442;SDS011;54311;51.726;5.154;2023-09-12T00:56:47;23.48;;;20.98;;
67442;SDS011;54311;51.726;5.154;2023-09-12T00:59:12;22.50;;;20.10;;
67442;SDS011;54311;51.726;5.154;2023-09-12T01:01:39;24.70;;;22.10;;
67442;SDS011;54311;51.726;5.154;2023-09-12T01:04:04;25.95;;;23.25;;
67442;SDS011;54311;51.726;5.154;2023-09-12T01:06:30;24.60;;;20.15;;
67442;SDS011;54311;51.726;5.154;2023-09-12T01:08:57;23.75;;;21.27;;
67442;SDS011;54311;51.726;5.154;2023-09-12T01:11:22;23.80;;;20.35;;
67442;SDS011;54311;51.726;5.154;2023-09-12T01:13:48;25.13;;;21.15;;
67442;SDS011;54311;51.726;5.154;2023-09-12T01:16:13;23.75;;;21.35;;
67442;SDS011;54311;51.726;5.154;2023-09-12T01:18:38;23.17;;;20.83;;
67442;SDS011;54311;51.726;5.154;2023-09-12T01:30:00;27.52;;;22.27;;
67442;SDS011;54311;51.726;5.154;2023-09-12T01:32:28;23.52;;;21.13;;
67442;SDS011;54311;51.726;5.154;2023-09-12T01:34:54;23.88;;;21.38;;
67442;SDS011;54311;51.726;5.154;2023-09-12T01:37:19;24.30;;;21.67;;
67442;SDS011;54311;51.726;5.154;2023-09-12T01:39:45;22.85;;;20.65;;
67442;SDS011;54311;51.726;5.154;2023-09-12T01:42:11;21.70;;;19.50;;
67442;SDS011;54311;51.726;5.154;2023-09-12T01:44:39;22.60;;;19.90;;
67442;SDS011;54311;51.726;5.154;2023-09-12T01:47:06;24.20;;;21.75;;
67442;SDS011;54311;51.726;5.154;2023-09-12T01:49:32;26.27;;;21.35;;
67442;SDS011;54311;51.726;5.154;2023-09-12T01:51:57;23.30;;;20.80;;
67442;SDS011;54311;51.726;5.154;2023-09-12T01:54:24;19.38;;;17.48;;
67442;SDS011;54311;51.726;5.154;2023-09-12T01:56:51;22.13;;;18.00;;
67442;SDS011;54311;51.726;5.154;2023-09-12T01:59:16;16.25;;;14.77;;
67442;SDS011;54311;51.726;5.154;2023-09-12T02:01:41;20.45;;;17.88;;
67442;SDS011;54311;51.726;5.154;2023-09-12T02:04:08;18.73;;;16.73;;
67442;SDS011;54311;51.726;5.154;2023-09-12T02:06:34;16.92;;;15.43;;
67442;SDS011;54311;51.726;5.154;2023-09-12T02:09:00;15.43;;;14.02;;
67442;SDS011;54311;51.726;5.154;2023-09-12T02:11:26;12.77;;;11.77;;
67442;SDS011;54311;51.726;5.154;2023-09-12T02:13:51;11.13;;;10.13;;
67442;SDS011;54311;51.726;5.154;2023-09-12T02:16:17;14.98;;;13.63;;
67442;SDS011;54311;51.726;5.154;2023-09-12T02:18:42;15.75;;;14.27;;
67442;SDS011;54311;51.726;5.154;2023-09-12T02:21:07;20.13;;;18.10;;
67442;SDS011;54311;51.726;5.154;2023-09-12T02:23:33;19.85;;;17.75;;
67442;SDS011;54311;51.726;5.154;2023-09-12T02:25:58;25.85;;;18.48;;
67442;SDS011;54311;51.726;5.154;2023-09-12T02:28:23;19.95;;;17.92;;
67442;SDS011;54311;51.726;5.154;2023-09-12T02:30:49;20.98;;;18.98;;
67442;SDS011;54311;51.726;5.154;2023-09-12T02:33:15;20.20;;;18.20;;
67442;SDS011;54311;51.726;5.154;2023-09-12T02:35:40;19.50;;;17.38;;
67442;SDS011;54311;51.726;5.154;2023-09-12T02:38:07;19.17;;;17.38;;
67442;SDS011;54311;51.726;5.154;2023-09-12T02:40:32;18.45;;;16.77;;
67442;SDS011;54311;51.726;5.154;2023-09-12T02:42:58;17.45;;;15.85;;
67442;SDS011;54311;51.726;5.154;2023-09-12T02:45:23;17.52;;;15.90;;
67442;SDS011;54311;51.726;5.154;2023-09-12T02:47:48;19.23;;;16.58;;
67442;SDS011;54311;51.726;5.154;2023-09-12T02:50:14;18.13;;;16.30;;
67442;SDS011;54311;51.726;5.154;2023-09-12T02:52:39;18.65;;;16.55;;
67442;SDS011;54311;51.726;5.154;2023-09-12T02:55:05;19.73;;;17.33;;
67442;SDS011;54311;51.726;5.154;2023-09-12T02:57:30;17.45;;;15.35;;
67442;SDS011;54311;51.726;5.154;2023-09-12T02:59:56;20.30;;;18.33;;
67442;SDS011;54311;51.726;5.154;2023-09-12T03:02:21;22.42;;;20.23;;
67442;SDS011;54311;51.726;5.154;2023-09-12T03:04:46;23.55;;;20.00;;
67442;SDS011;54311;51.726;5.154;2023-09-12T03:07:12;23.20;;;20.52;;
67442;SDS011;54311;51.726;5.154;2023-09-12T03:09:37;22.90;;;19.80;;
67442;SDS011;54311;51.726;5.154;2023-09-12T03:12:03;22.75;;;20.30;;
67442;SDS011;54311;51.726;5.154;2023-09-12T03:14:32;20.92;;;18.83;;
67442;SDS011;54311;51.726;5.154;2023-09-12T03:16:57;20.42;;;18.45;;
67442;SDS011;54311;51.726;5.154;2023-09-12T03:19:23;20.48;;;18.40;;
67442;SDS011;54311;51.726;5.154;2023-09-12T03:21:48;20.42;;;18.38;;
67442;SDS011;54311;51.726;5.154;2023-09-12T03:24:13;19.77;;;17.60;;
67442;SDS011;54311;51.726;5.154;2023-09-12T03:26:39;21.55;;;19.25;;
67442;SDS011;54311;51.726;5.154;2023-09-12T03:29:04;22.13;;;18.13;;
67442;SDS011;54311;51.726;5.154;2023-09-12T03:31:30;19.50;;;17.38;;
67442;SDS011;54311;51.726;5.154;2023-09-12T03:33:55;19.30;;;17.30;;
67442;SDS011;54311;51.726;5.154;2023-09-12T03:36:20;19.10;;;17.10;;
67442;SDS011;54311;51.726;5.154;2023-09-12T03:38:46;19.75;;;17.83;;
67442;SDS011;54311;51.726;5.154;2023-09-12T03:41:11;18.80;;;16.90;;
67442;SDS011;54311;51.726;5.154;2023-09-12T03:43:37;16.83;;;15.02;;
67442;SDS011;54311;51.726;5.154;2023-09-12T03:46:02;17.02;;;15.23;;
67442;SDS011;54311;51.726;5.154;2023-09-12T03:48:28;16.40;;;14.77;;
67442;SDS011;54311;51.726;5.154;2023-09-12T03:50:55;15.68;;;14.10;;
67442;SDS011;54311;51.726;5.154;2023-09-12T03:53:21;17.45;;;14.02;;
67442;SDS011;54311;51.726;5.154;2023-09-12T03:55:46;15.13;;;13.13;;
67442;SDS011;54311;51.726;5.154;2023-09-12T03:58:12;21.08;;;13.77;;
67442;SDS011;54311;51.726;5.154;2023-09-12T04:00:37;16.77;;;13.50;;
67442;SDS011;54311;51.726;5.154;2023-09-12T04:03:02;17.27;;;15.52;;
67442;SDS011;54311;51.726;5.154;2023-09-12T04:05:28;20.23;;;16.15;;
67442;SDS011;54311;51.726;5.154;2023-09-12T04:07:53;24.15;;;17.52;;
67442;SDS011;54311;51.726;5.154;2023-09-12T04:10:22;24.27;;;17.10;;
67442;SDS011;54311;51.726;5.154;2023-09-12T04:12:47;24.27;;;17.00;;
67442;SDS011;54311;51.726;5.154;2023-09-12T04:15:13;20.40;;;17.30;;
67442;SDS011;54311;51.726;5.154;2023-09-12T04:17:38;24.83;;;18.25;;
67442;SDS011;54311;51.726;5.154;2023-09-12T04:20:03;23.42;;;19.02;;
67442;SDS011;54311;51.726;5.154;2023-09-12T04:22:29;22.65;;;18.90;;
67442;SDS011;54311;51.726;5.154;2023-09-12T04:24:55;21.25;;;19.00;;
67442;SDS011;54311;51.726;5.154;2023-09-12T04:27:20;21.45;;;19.25;;
67442;SDS011;54311;51.726;5.154;2023-09-12T04:29:45;22.45;;;19.92;;
67442;SDS011;54311;51.726;5.154;2023-09-12T04:32:11;26.30;;;21.27;;
67442;SDS011;54311;51.726;5.154;2023-09-12T04:34:36;25.33;;;20.10;;
67442;SDS011;54311;51.726;5.154;2023-09-12T04:37:02;24.63;;;20.48;;
67442;SDS011;54311;51.726;5.154;2023-09-12T04:39:27;26.63;;;21.10;;
67442;SDS011;54311;51.726;5.154;2023-09-12T04:41:53;27.10;;;22.58;;
67442;SDS011;54311;51.726;5.154;2023-09-12T04:44:18;28.40;;;22.02;;
67442;SDS011;54311;51.726;5.154;2023-09-12T04:46:44;30.40;;;22.85;;
67442;SDS011;54311;51.726;5.154;2023-09-12T04:49:09;30.55;;;23.17;;
67442;SDS011;54311;51.726;5.154;2023-09-12T04:51:34;29.83;;;22.77;;
67442;SDS011;54311;51.726;5.154;2023-09-12T04:54:00;28.60;;;23.38;;
67442;SDS011;54311;51.726;5.154;2023-09-12T04:56:25;27.90;;;23.23;;
67442;SDS011;54311;51.726;5.154;2023-09-12T04:58:51;30.55;;;23.67;;
67442;SDS011;54311;51.726;5.154;2023-09-12T05:01:16;32.15;;;24.23;;
67442;SDS011;54311;51.726;5.154;2023-09-12T05:03:42;32.47;;;25.55;;
67442;SDS011;54311;51.726;5.154;2023-09-12T05:06:08;29.05;;;24.48;;
67442;SDS011;54311;51.726;5.154;2023-09-12T05:08:34;34.53;;;23.10;;
67442;SDS011;54311;51.726;5.154;2023-09-12T05:10:59;30.15;;;24.30;;
67442;SDS011;54311;51.726;5.154;2023-09-12T05:13:24;35.13;;;25.85;;
67442;SDS011;54311;51.726;5.154;2023-09-12T05:15:50;37.45;;;27.35;;
67442;SDS011;54311;51.726;5.154;2023-09-12T05:18:15;37.25;;;25.08;;
67442;SDS011;54311;51.726;5.154;2023-09-12T05:20:40;33.17;;;23.92;;
67442;SDS011;54311;51.726;5.154;2023-09-12T05:23:06;36.45;;;25.48;;
67442;SDS011;54311;51.726;5.154;2023-09-12T05:25:31;36.92;;;25.55;;
67442;SDS011;54311;51.726;5.154;2023-09-12T05:27:57;40.80;;;26.75;;
67442;SDS011;54311;51.726;5.154;2023-09-12T05:30:22;37.22;;;26.33;;
67442;SDS011;54311;51.726;5.154;2023-09-12T05:32:47;35.55;;;25.90;;
67442;SDS011;54311;51.726;5.154;2023-09-12T05:35:13;36.72;;;26.77;;
67442;SDS011;54311;51.726;5.154;2023-09-12T05:37:38;35.88;;;26.23;;
67442;SDS011;54311;51.726;5.154;2023-09-12T05:40:03;42.25;;;27.63;;
67442;SDS011;54311;51.726;5.154;2023-09-12T05:42:29;40.97;;;27.15;;
67442;SDS011;54311;51.726;5.154;2023-09-12T05:44:55;38.70;;;27.65;;
67442;SDS011;54311;51.726;5.154;2023-09-12T05:47:21;39.50;;;27.73;;
67442;SDS011;54311;51.726;5.154;2023-09-12T05:49:47;34.88;;;25.80;;
67442;SDS011;54311;51.726;5.154;2023-09-12T05:52:12;41.55;;;27.98;;
67442;SDS011;54311;51.726;5.154;2023-09-12T05:54:38;46.97;;;28.10;;
67442;SDS011;54311;51.726;5.154;2023-09-12T05:57:05;39.70;;;26.48;;
67442;SDS011;54311;51.726;5.154;2023-09-12T05:59:31;41.53;;;28.17;;
67442;SDS011;54311;51.726;5.154;2023-09-12T06:01:56;39.28;;;27.50;;
67442;SDS011;54311;51.726;5.154;2023-09-12T06:04:21;41.38;;;27.27;;
67442;SDS011;54311;51.726;5.154;2023-09-12T06:06:47;40.25;;;26.98;;
67442;SDS011;54311;51.726;5.154;2023-09-12T06:09:12;37.40;;;27.38;;
67442;SDS011;54311;51.726;5.154;2023-09-12T06:11:38;42.35;;;28.48;;
67442;SDS011;54311;51.726;5.154;2023-09-12T06:14:03;42.38;;;28.33;;
67442;SDS011;54311;51.726;5.154;2023-09-12T06:16:28;41.33;;;29.60;;
67442;SDS011;54311;51.726;5.154;2023-09-12T06:18:54;49.40;;;30.15;;
67442;SDS011;54311;51.726;5.154;2023-09-12T06:21:20;43.42;;;28.85;;
67442;SDS011;54311;51.726;5.154;2023-09-12T06:23:46;42.78;;;28.83;;
67442;SDS011;54311;51.726;5.154;2023-09-12T06:26:12;45.75;;;28.10;;
67442;SDS011;54311;51.726;5.154;2023-09-12T06:28:38;36.65;;;26.60;;
67442;SDS011;54311;51.726;5.154;2023-09-12T06:31:03;40.95;;;29.08;;
67442;SDS011;54311;51.726;5.154;2023-09-12T06:33:29;38.83;;;28.33;;
67442;SDS011;54311;51.726;5.154;2023-09-12T06:35:54;44.63;;;29.00;;
67442;SDS011;54311;51.726;5.154;2023-09-12T06:38:20;42.53;;;28.90;;
67442;SDS011;54311;51.726;5.154;2023-09-12T06:40:46;50.10;;;30.33;;
67442;SDS011;54311;51.726;5.154;2023-09-12T06:43:12;43.78;;;29.58;;
67442;SDS011;54311;51.726;5.154;2023-09-12T06:45:38;53.30;;;30.20;;
67442;SDS011;54311;51.726;5.154;2023-09-12T06:48:05;42.05;;;27.98;;
67442;SDS011;54311;51.726;5.154;2023-09-12T06:50:30;44.05;;;29.48;;
67442;SDS011;54311;51.726;5.154;2023-09-12T06:52:55;45.40;;;31.02;;
67442;SDS011;54311;51.726;5.154;2023-09-12T06:55:21;48.33;;;31.60;;
67442;SDS011;54311;51.726;5.154;2023-09-12T06:57:46;46.90;;;31.83;;
67442;SDS011;54311;51.726;5.154;2023-09-12T07:00:12;48.97;;;31.92;;
67442;SDS011;54311;51.726;5.154;2023-09-12T07:02:38;45.20;;;31.20;;
67442;SDS011;54311;51.726;5.154;2023-09-12T07:05:03;47.92;;;30.70;;
67442;SDS011;54311;51.726;5.154;2023-09-12T07:07:29;45.97;;;29.95;;
67442;SDS011;54311;51.726;5.154;2023-09-12T07:09:55;44.75;;;30.13;;
67442;SDS011;54311;51.726;5.154;2023-09-12T07:12:21;53.70;;;32.15;;
67442;SDS011;54311;51.726;5.154;2023-09-12T07:14:46;44.55;;;30.02;;
67442;SDS011;54311;51.726;5.154;2023-09-12T07:17:12;47.75;;;30.10;;
67442;SDS011;54311;51.726;5.154;2023-09-12T07:19:37;45.60;;;29.70;;
67442;SDS011;54311;51.726;5.154;2023-09-12T07:22:02;51.15;;;33.25;;
67442;SDS011;54311;51.726;5.154;2023-09-12T07:24:28;47.05;;;31.92;;
67442;SDS011;54311;51.726;5.154;2023-09-12T07:26:53;49.72;;;34.38;;
67442;SDS011;54311;51.726;5.154;2023-09-12T07:29:19;59.42;;;37.42;;
67442;SDS011;54311;51.726;5.154;2023-09-12T07:31:44;52.95;;;36.35;;
67442;SDS011;54311;51.726;5.154;2023-09-12T07:34:09;56.47;;;36.80;;
67442;SDS011;54311;51.726;5.154;2023-09-12T07:36:36;64.68;;;40.85;;
67442;SDS011;54311;51.726;5.154;2023-09-12T07:39:02;62.83;;;41.75;;
67442;SDS011;54311;51.726;5.154;2023-09-12T07:41:29;63.22;;;40.25;;
67442;SDS011;54311;51.726;5.154;2023-09-12T07:43:54;70.68;;;43.80;;
67442;SDS011;54311;51.726;5.154;2023-09-12T07:46:20;67.20;;;43.33;;
67442;SDS011;54311;51.726;5.154;2023-09-12T07:48:45;76.28;;;45.03;;
67442;SDS011;54311;51.726;5.154;2023-09-12T07:51:11;79.38;;;46.97;;
67442;SDS011;54311;51.726;5.154;2023-09-12T07:53:40;74.85;;;47.95;;
67442;SDS011;54311;51.726;5.154;2023-09-12T07:56:06;82.13;;;50.33;;
67442;SDS011;54311;51.726;5.154;2023-09-12T07:58:32;85.38;;;50.65;;
67442;SDS011;54311;51.726;5.154;2023-09-12T08:00:57;90.45;;;51.70;;
67442;SDS011;54311;51.726;5.154;2023-09-12T08:03:23;90.38;;;52.75;;
67442;SDS011;54311;51.726;5.154;2023-09-12T08:05:57;96.90;;;55.90;;
67442;SDS011;54311;51.726;5.154;2023-09-12T08:08:22;95.88;;;54.45;;
67442;SDS011;54311;51.726;5.154;2023-09-12T08:10:48;98.57;;;54.97;;
67442;SDS011;54311;51.726;5.154;2023-09-12T08:13:15;105.05;;;56.63;;
67442;SDS011;54311;51.726;5.154;2023-09-12T08:15:40;101.78;;;56.50;;
67442;SDS011;54311;51.726;5.154;2023-09-12T08:18:06;98.00;;;54.30;;
67442;SDS011;54311;51.726;5.154;2023-09-12T08:20:31;101.47;;;53.88;;
67442;SDS011;54311;51.726;5.154;2023-09-12T08:22:56;102.97;;;53.88;;
67442;SDS011;54311;51.726;5.154;2023-09-12T08:25:22;101.13;;;53.70;;
67442;SDS011;54311;51.726;5.154;2023-09-12T08:27:48;107.03;;;54.88;;
67442;SDS011;54311;51.726;5.154;2023-09-12T08:30:13;97.05;;;53.22;;
67442;SDS011;54311;51.726;5.154;2023-09-12T08:32:39;95.53;;;51.92;;
67442;SDS011;54311;51.726;5.154;2023-09-12T08:35:08;101.05;;;52.22;;
67442;SDS011;54311;51.726;5.154;2023-09-12T08:37:34;91.53;;;51.10;;
67442;SDS011;54311;51.726;5.154;2023-09-12T08:39:59;88.30;;;49.85;;
67442;SDS011;54311;51.726;5.154;2023-09-12T08:42:26;85.22;;;48.55;;
67442;SDS011;54311;51.726;5.154;2023-09-12T08:44:54;91.00;;;50.80;;
67442;SDS011;54311;51.726;5.154;2023-09-12T08:47:20;89.03;;;50.83;;
67442;SDS011;54311;51.726;5.154;2023-09-12T08:49:47;87.00;;;51.88;;
67442;SDS011;54311;51.726;5.154;2023-09-12T08:52:13;82.43;;;48.45;;
67442;SDS011;54311;51.726;5.154;2023-09-12T08:54:38;81.85;;;49.70;;
67442;SDS011;54311;51.726;5.154;2023-09-12T08:57:07;86.60;;;50.60;;
67442;SDS011;54311;51.726;5.154;2023-09-12T08:59:33;84.18;;;50.40;;
67442;SDS011;54311;51.726;5.154;2023-09-12T09:01:59;85.38;;;51.00;;
67442;SDS011;54311;51.726;5.154;2023-09-12T09:04:26;93.38;;;51.47;;
67442;SDS011;54311;51.726;5.154;2023-09-12T09:06:54;87.78;;;49.95;;
67442;SDS011;54311;51.726;5.154;2023-09-12T09:09:22;81.78;;;47.25;;
67442;SDS011;54311;51.726;5.154;2023-09-12T09:11:49;83.00;;;47.17;;
67442;SDS011;54311;51.726;5.154;2023-09-12T09:14:14;85.45;;;48.38;;
67442;SDS011;54311;51.726;5.154;2023-09-12T09:16:40;79.22;;;44.10;;
67442;SDS011;54311;51.726;5.154;2023-09-12T09:19:05;80.95;;;46.28;;
67442;SDS011;54311;51.726;5.154;2023-09-12T09:21:34;79.80;;;42.90;;
67442;SDS011;54311;51.726;5.154;2023-09-12T09:24:04;76.38;;;41.25;;
67442;SDS011;54311;51.726;5.154;2023-09-12T09:26:41;72.88;;;40.72;;
67442;SDS011;54311;51.726;5.154;2023-09-12T09:29:14;79.05;;;41.55;;
67442;SDS011;54311;51.726;5.154;2023-09-12T09:31:41;80.35;;;43.92;;
67442;SDS011;54311;51.726;5.154;2023-09-12T09:34:12;77.47;;;43.90;;
67442;SDS011;54311;51.726;5.154;2023-09-12T09:36:56;81.70;;;45.30;;
67442;SDS011;54311;51.726;5.154;2023-09-12T09:39:23;78.85;;;44.90;;
67442;SDS011;54311;51.726;5.154;2023-09-12T09:41:49;74.53;;;42.40;;
67442;SDS011;54311;51.726;5.154;2023-09-12T09:44:15;80.03;;;41.47;;
67442;SDS011;54311;51.726;5.154;2023-09-12T09:46:45;74.43;;;41.97;;
67442;SDS011;54311;51.726;5.154;2023-09-12T09:49:11;74.90;;;43.55;;
67442;SDS011;54311;51.726;5.154;2023-09-12T09:51:42;75.82;;;41.38;;
67442;SDS011;54311;51.726;5.154;2023-09-12T09:54:08;66.13;;;39.30;;
67442;SDS011;54311;51.726;5.154;2023-09-12T09:56:44;64.25;;;40.08;;
67442;SDS011;54311;51.726;5.154;2023-09-12T09:59:14;69.70;;;39.50;;
67442;SDS011;54311;51.726;5.154;2023-09-12T10:01:41;59.08;;;36.25;;
67442;SDS011;54311;51.726;5.154;2023-09-12T10:04:06;65.80;;;37.75;;
67442;SDS011;54311;51.726;5.154;2023-09-12T10:06:32;68.50;;;39.75;;
67442;SDS011;54311;51.726;5.154;2023-09-12T10:09:00;63.17;;;37.25;;
67442;SDS011;54311;51.726;5.154;2023-09-12T10:11:31;61.13;;;36.92;;
67442;SDS011;54311;51.726;5.154;2023-09-12T10:13:59;59.83;;;36.85;;
67442;SDS011;54311;51.726;5.154;2023-09-12T10:16:30;48.58;;;31.58;;
67442;SDS011;54311;51.726;5.154;2023-09-12T10:21:45;45.95;;;30.52;;
67442;SDS011;54311;51.726;5.154;2023-09-12T10:24:11;48.80;;;31.55;;
67442;SDS011;54311;51.726;5.154;2023-09-12T10:26:37;49.50;;;31.70;;
67442;SDS011;54311;51.726;5.154;2023-09-12T10:29:07;55.67;;;33.35;;
67442;SDS011;54311;51.726;5.154;2023-09-12T10:31:33;55.33;;;34.05;;
67442;SDS011;54311;51.726;5.154;2023-09-12T10:33:59;50.67;;;33.33;;
67442;SDS011;54311;51.726;5.154;2023-09-12T10:36:26;54.72;;;34.60;;
67442;SDS011;54311;51.726;5.154;2023-09-12T10:38:51;48.53;;;30.60;;
67442;SDS011;54311;51.726;5.154;2023-09-12T10:41:17;40.28;;;28.00;;
67442;SDS011;54311;51.726;5.154;2023-09-12T10:43:44;43.17;;;28.10;;
67442;SDS011;54311;51.726;5.154;2023-09-12T10:46:14;43.92;;;27.30;;
67442;SDS011;54311;51.726;5.154;2023-09-12T10:48:40;40.35;;;27.50;;
67442;SDS011;54311;51.726;5.154;2023-09-12T10:51:06;40.60;;;26.05;;
67442;SDS011;54311;51.726;5.154;2023-09-12T10:53:32;48.03;;;29.75;;
67442;SDS011;54311;51.726;5.154;2023-09-12T10:56:01;50.88;;;32.15;;
67442;SDS011;54311;51.726;5.154;2023-09-12T11:01:30;54.65;;;33.67;;
67442;SDS011;54311;51.726;5.154;2023-09-12T11:03:57;55.15;;;34.72;;
67442;SDS011;54311;51.726;5.154;2023-09-12T11:06:24;49.28;;;33.58;;
67442;SDS011;54311;51.726;5.154;2023-09-12T11:11:42;49.17;;;31.25;;
67442;SDS011;54311;51.726;5.154;2023-09-12T11:14:08;51.20;;;32.67;;
67442;SDS011;54311;51.726;5.154;2023-09-12T11:16:34;52.33;;;32.75;;
67442;SDS011;54311;51.726;5.154;2023-09-12T11:19:19;47.50;;;32.60;;
67442;SDS011;54311;51.726;5.154;2023-09-12T11:21:49;58.50;;;34.05;;
67442;SDS011;54311;51.726;5.154;2023-09-12T11:24:15;49.85;;;32.08;;
67442;SDS011;54311;51.726;5.154;2023-09-12T11:29:26;48.42;;;30.15;;
67442;SDS011;54311;51.726;5.154;2023-09-12T11:31:54;52.97;;;31.42;;
67442;SDS011;54311;51.726;5.154;2023-09-12T11:34:23;48.78;;;32.55;;
67442;SDS011;54311;51.726;5.154;2023-09-12T11:36:50;45.05;;;28.95;;
67442;SDS011;54311;51.726;5.154;2023-09-12T11:39:38;48.22;;;32.35;;
67442;SDS011;54311;51.726;5.154;2023-09-12T11:44:30;49.55;;;31.27;;
67442;SDS011;54311;51.726;5.154;2023-09-12T11:46:56;51.72;;;32.17;;
67442;SDS011;54311;51.726;5.154;2023-09-12T11:49:36;51.92;;;33.30;;
67442;SDS011;54311;51.726;5.154;2023-09-12T11:52:02;52.28;;;32.35;;
67442;SDS011;54311;51.726;5.154;2023-09-12T11:54:28;45.53;;;31.02;;
67442;SDS011;54311;51.726;5.154;2023-09-12T11:56:54;50.03;;;30.42;;
67442;SDS011;54311;51.726;5.154;2023-09-12T11:59:31;45.72;;;29.70;;
67442;SDS011;54311;51.726;5.154;2023-09-12T12:01:56;50.17;;;29.67;;
67442;SDS011;54311;51.726;5.154;2023-09-12T12:04:22;49.35;;;31.65;;
67442;SDS011;54311;51.726;5.154;2023-09-12T12:06:50;53.05;;;32.20;;
67442;SDS011;54311;51.726;5.154;2023-09-12T12:09:17;46.17;;;30.08;;
67442;SDS011;54311;51.726;5.154;2023-09-12T12:11:46;47.83;;;31.15;;
67442;SDS011;54311;51.726;5.154;2023-09-12T12:14:13;52.03;;;30.88;;
67442;SDS011;54311;51.726;5.154;2023-09-12T12:16:41;60.05;;;36.28;;
67442;SDS011;54311;51.726;5.154;2023-09-12T12:19:08;55.35;;;34.45;;
67442;SDS011;54311;51.726;5.154;2023-09-12T12:21:40;47.45;;;31.42;;
67442;SDS011;54311;51.726;5.154;2023-09-12T12:24:15;51.75;;;30.52;;
67442;SDS011;54311;51.726;5.154;2023-09-12T12:26:41;43.78;;;27.88;;
67442;SDS011;54311;51.726;5.154;2023-09-12T12:29:10;46.28;;;28.83;;
67442;SDS011;54311;51.726;5.154;2023-09-12T12:31:39;44.55;;;29.08;;
67442;SDS011;54311;51.726;5.154;2023-09-12T12:34:04;42.45;;;27.02;;
67442;SDS011;54311;51.726;5.154;2023-09-12T12:36:30;44.72;;;27.80;;
67442;SDS011;54311;51.726;5.154;2023-09-12T12:38:55;37.53;;;24.65;;
67442;SDS011;54311;51.726;5.154;2023-09-12T12:41:25;33.92;;;23.83;;
67442;SDS011;54311;51.726;5.154;2023-09-12T12:43:55;36.45;;;25.15;;
67442;SDS011;54311;51.726;5.154;2023-09-12T12:46:24;35.08;;;21.83;;
67442;SDS011;54311;51.726;5.154;2023-09-12T12:48:50;28.80;;;19.05;;
67442;SDS011;54311;51.726;5.154;2023-09-12T12:51:17;29.80;;;19.70;;
67442;SDS011;54311;51.726;5.154;2023-09-12T12:53:46;31.50;;;21.17;;
67442;SDS011;54311;51.726;5.154;2023-09-12T12:56:23;29.13;;;20.45;;
67442;SDS011;54311;51.726;5.154;2023-09-12T12:58:52;24.10;;;18.27;;
67442;SDS011;54311;51.726;5.154;2023-09-12T13:01:20;25.05;;;16.95;;
67442;SDS011;54311;51.726;5.154;2023-09-12T13:03:45;25.38;;;16.05;;
67442;SDS011;54311;51.726;5.154;2023-09-12T13:06:11;23.33;;;16.77;;
67442;SDS011;54311;51.726;5.154;2023-09-12T13:08:43;24.75;;;18.23;;
67442;SDS011;54311;51.726;5.154;2023-09-12T13:11:10;28.15;;;18.70;;
67442;SDS011;54311;51.726;5.154;2023-09-12T13:13:37;27.70;;;20.52;;
67442;SDS011;54311;51.726;5.154;2023-09-12T13:16:03;23.38;;;18.33;;
67442;SDS011;54311;51.726;5.154;2023-09-12T13:18:30;32.95;;;21.08;;
67442;SDS011;54311;51.726;5.154;2023-09-12T13:20:59;32.15;;;21.30;;
67442;SDS011;54311;51.726;5.154;2023-09-12T13:23:24;30.70;;;20.15;;
67442;SDS011;54311;51.726;5.154;2023-09-12T13:25:50;26.52;;;18.85;;
67442;SDS011;54311;51.726;5.154;2023-09-12T13:28:16;28.00;;;20.83;;
67442;SDS011;54311;51.726;5.154;2023-09-12T13:30:41;24.60;;;18.25;;
67442;SDS011;54311;51.726;5.154;2023-09-12T13:33:07;25.92;;;18.58;;
67442;SDS011;54311;51.726;5.154;2023-09-12T13:35:32;18.85;;;16.80;;
67442;SDS011;54311;51.726;5.154;2023-09-12T13:37:57;26.25;;;18.52;;
67442;SDS011;54311;51.726;5.154;2023-09-12T13:40:23;28.98;;;19.13;;
67442;SDS011;54311;51.726;5.154;2023-09-12T13:42:48;26.55;;;19.10;;
67442;SDS011;54311;51.726;5.154;2023-09-12T13:45:13;23.50;;;18.23;;
67442;SDS011;54311;51.726;5.154;2023-09-12T13:47:39;24.38;;;17.38;;
67442;SDS011;54311;51.726;5.154;2023-09-12T13:50:04;24.30;;;18.38;;
67442;SDS011;54311;51.726;5.154;2023-09-12T13:52:31;19.90;;;14.75;;
67442;SDS011;54311;51.726;5.154;2023-09-12T13:54:56;16.23;;;12.38;;
67442;SDS011;54311;51.726;5.154;2023-09-12T13:57:22;15.80;;;11.85;;
67442;SDS011;54311;51.726;5.154;2023-09-12T13:59:47;13.55;;;11.55;;
67442;SDS011;54311;51.726;5.154;2023-09-12T14:02:13;24.17;;;14.02;;
67442;SDS011;54311;51.726;5.154;2023-09-12T14:04:38;20.08;;;15.18;;
67442;SDS011;54311;51.726;5.154;2023-09-12T14:07:05;17.77;;;13.48;;
67442;SDS011;54311;51.726;5.154;2023-09-12T14:09:30;21.13;;;13.75;;
67442;SDS011;54311;51.726;5.154;2023-09-12T14:11:55;27.40;;;19.50;;
67442;SDS011;54311;51.726;5.154;2023-09-12T14:14:21;27.08;;;20.85;;
67442;SDS011;54311;51.726;5.154;2023-09-12T14:16:46;30.73;;;22.15;;
67442;SDS011;54311;51.726;5.154;2023-09-12T14:19:12;37.05;;;23.73;;
67442;SDS011;54311;51.726;5.154;2023-09-12T14:21:37;35.03;;;26.15;;
67442;SDS011;54311;51.726;5.154;2023-09-12T14:24:03;32.33;;;24.48;;
67442;SDS011;54311;51.726;5.154;2023-09-12T14:26:28;28.80;;;23.23;;
67442;SDS011;54311;51.726;5.154;2023-09-12T14:28:54;30.02;;;23.15;;
67442;SDS011;54311;51.726;5.154;2023-09-12T14:31:20;34.28;;;24.17;;
67442;SDS011;54311;51.726;5.154;2023-09-12T14:33:48;32.47;;;23.33;;
67442;SDS011;54311;51.726;5.154;2023-09-12T14:36:13;32.50;;;22.70;;
67442;SDS011;54311;51.726;5.154;2023-09-12T14:38:39;28.98;;;21.73;;
67442;SDS011;54311;51.726;5.154;2023-09-12T14:41:04;29.20;;;21.08;;